createdAt,value
2023-04-15T00:00:05.016Z,8.22
2023-04-15T00:01:05.180Z,8.20
2023-04-15T00:02:03.527Z,8.12
2023-04-15T00:03:03.771Z,8.06
2023-04-15T00:04:03.891Z,8.06
2023-04-15T00:05:04.059Z,8.00
2023-04-15T00:06:03.286Z,7.92
2023-04-15T00:07:03.551Z,7.84
2023-04-15T00:08:03.831Z,7.85
2023-04-15T00:09:04.081Z,7.81
2023-04-15T00:10:03.332Z,7.81
2023-04-15T00:11:03.319Z,7.76
2023-04-15T00:12:03.468Z,7.69
2023-04-15T00:13:03.733Z,7.63
2023-04-15T00:14:03.949Z,7.57
2023-04-15T00:15:03.237Z,7.55
2023-04-15T00:16:03.436Z,7.52
2023-04-15T00:17:03.738Z,7.50
2023-04-15T00:18:03.983Z,7.50
2023-04-15T00:19:03.347Z,7.50
2023-04-15T00:20:03.432Z,7.47
2023-04-15T00:21:03.753Z,7.48
2023-04-15T00:22:03.914Z,7.48
2023-04-15T00:23:04.391Z,7.50
2023-04-15T00:24:03.527Z,7.48
2023-04-15T00:25:03.751Z,7.47
2023-04-15T00:26:03.985Z,7.52
2023-04-15T00:27:03.278Z,7.51
2023-04-15T00:28:04.499Z,7.54
2023-04-15T00:29:03.801Z,7.51
2023-04-15T00:30:03.073Z,7.52
2023-04-15T00:31:04.298Z,7.51
2023-04-15T00:32:04.570Z,7.47
2023-04-15T00:33:02.833Z,7.42
2023-04-15T00:34:03.102Z,7.37
2023-04-15T00:35:03.435Z,7.39
2023-04-15T00:36:03.663Z,7.37
2023-04-15T00:37:02.893Z,7.36
2023-04-15T00:38:03.171Z,7.36
2023-04-15T00:39:03.418Z,7.32
2023-04-15T00:40:03.663Z,7.32
2023-04-15T00:41:02.874Z,7.29
2023-04-15T00:42:03.179Z,7.32
2023-04-15T00:43:03.390Z,7.30
2023-04-15T00:44:03.645Z,7.27
2023-04-15T00:45:02.913Z,7.23
2023-04-15T00:46:03.190Z,7.19
2023-04-15T00:47:03.398Z,7.19
2023-04-15T00:48:02.599Z,7.18
2023-04-15T00:49:03.859Z,7.19
2023-04-15T00:50:03.224Z,7.18
2023-04-15T00:51:03.444Z,7.16
2023-04-15T00:52:02.677Z,7.18
2023-04-15T00:53:03.873Z,7.18
2023-04-15T00:54:03.193Z,7.18
2023-04-15T00:55:03.460Z,7.16
2023-04-15T00:56:02.717Z,7.12
2023-04-15T00:57:03.004Z,7.12
2023-04-15T00:58:03.228Z,7.12
2023-04-15T00:59:02.594Z,7.14
2023-04-15T01:00:02.768Z,7.14
2023-04-15T01:01:02.988Z,7.14
2023-04-15T01:02:03.430Z,7.15
2023-04-15T01:03:02.640Z,7.15
2023-04-15T01:04:02.837Z,7.18
2023-04-15T01:05:03.091Z,7.15
2023-04-15T01:06:04.143Z,7.14
2023-04-15T01:07:02.619Z,7.12
2023-04-15T01:08:02.851Z,7.11
2023-04-15T01:09:03.452Z,7.12
2023-04-15T01:10:02.350Z,7.09
2023-04-15T01:11:03.682Z,7.09
2023-04-15T01:12:02.861Z,7.09
2023-04-15T01:13:03.178Z,7.07
2023-04-15T01:14:02.365Z,7.08
2023-04-15T01:15:02.664Z,7.09
2023-04-15T01:16:03.042Z,7.07
2023-04-15T01:17:03.239Z,7.07
2023-04-15T01:18:02.467Z,7.07
2023-04-15T01:19:03.084Z,7.05
2023-04-15T01:20:02.965Z,7.04
2023-04-15T01:21:02.197Z,7.05
2023-04-15T01:22:02.520Z,7.04
2023-04-15T01:23:02.770Z,7.00
2023-04-15T01:24:03.044Z,7.00
2023-04-15T01:25:02.324Z,7.04
2023-04-15T01:26:02.555Z,7.04
2023-04-15T01:27:02.830Z,7.00
2023-04-15T01:28:02.092Z,6.97
2023-04-15T01:29:02.609Z,6.94
2023-04-15T01:30:02.627Z,6.96
2023-04-15T01:31:02.981Z,6.99
2023-04-15T01:32:02.268Z,6.90
2023-04-15T01:33:02.612Z,6.89
2023-04-15T01:34:02.775Z,6.87
2023-04-15T01:35:01.986Z,6.82
2023-04-15T01:36:02.254Z,6.82
2023-04-15T01:37:02.585Z,6.81
2023-04-15T01:38:02.832Z,6.76
2023-04-15T01:39:02.317Z,6.75
2023-04-15T01:40:02.295Z,6.69
2023-04-15T01:41:02.567Z,6.68
2023-04-15T01:42:02.807Z,6.64
2023-04-15T01:43:02.031Z,6.63
2023-04-15T01:44:02.386Z,6.63
2023-04-15T01:45:02.558Z,6.61
2023-04-15T01:46:02.835Z,6.63
2023-04-15T01:47:02.188Z,6.58
2023-04-15T01:48:02.377Z,6.58
2023-04-15T01:49:02.890Z,6.58
2023-04-15T01:50:01.886Z,6.58
2023-04-15T01:51:02.185Z,6.57
2023-04-15T01:52:02.485Z,6.57
2023-04-15T01:53:02.734Z,6.63
2023-04-15T01:54:01.993Z,6.65
2023-04-15T01:55:02.472Z,6.64
2023-04-15T01:56:02.569Z,6.69
2023-04-15T01:57:02.768Z,6.72
2023-04-15T01:58:02.101Z,6.75
2023-04-15T01:59:03.337Z,6.75
2023-04-15T02:00:02.658Z,6.78
2023-04-15T02:01:01.926Z,6.79
2023-04-15T02:02:02.227Z,6.81
2023-04-15T02:03:02.509Z,6.81
2023-04-15T02:04:01.695Z,6.81
2023-04-15T02:05:01.958Z,6.83
2023-04-15T02:06:02.313Z,6.81
2023-04-15T02:07:02.520Z,6.82
2023-04-15T02:08:01.759Z,6.81
2023-04-15T02:09:02.293Z,6.76
2023-04-15T02:10:02.326Z,6.73
2023-04-15T02:11:01.531Z,6.78
2023-04-15T02:12:01.904Z,6.72
2023-04-15T02:13:02.169Z,6.71
2023-04-15T02:14:02.387Z,6.71
2023-04-15T02:15:01.658Z,6.72
2023-04-15T02:16:01.994Z,6.65
2023-04-15T02:17:02.218Z,6.65
2023-04-15T02:18:01.451Z,6.63
2023-04-15T02:19:01.882Z,6.61
2023-04-15T02:20:01.999Z,6.61
2023-04-15T02:21:02.224Z,6.58
2023-04-15T02:22:01.449Z,6.55
2023-04-15T02:23:01.731Z,6.54
2023-04-15T02:24:03.063Z,6.53
2023-04-15T02:25:02.256Z,6.53
2023-04-15T02:26:01.498Z,6.54
2023-04-15T02:27:01.804Z,6.58
2023-04-15T02:28:02.060Z,6.57
2023-04-15T02:29:01.487Z,6.58
2023-04-15T02:30:01.563Z,6.61
2023-04-15T02:31:01.874Z,6.60
2023-04-15T02:32:02.225Z,6.64
2023-04-15T02:33:01.441Z,6.69
2023-04-15T02:34:01.672Z,6.69
2023-04-15T02:35:01.935Z,6.73
2023-04-15T02:36:01.196Z,6.76
2023-04-15T02:37:01.547Z,6.72
2023-04-15T02:38:01.773Z,6.75
2023-04-15T02:39:02.427Z,6.75
2023-04-15T02:40:02.400Z,6.79
2023-04-15T02:41:02.570Z,6.81
2023-04-15T02:42:01.914Z,6.78
2023-04-15T02:43:01.137Z,6.75
2023-04-15T02:44:02.400Z,6.72
2023-04-15T02:45:01.719Z,6.72
2023-04-15T02:46:02.032Z,6.71
2023-04-15T02:47:02.225Z,6.69
2023-04-15T02:48:01.594Z,6.63
2023-04-15T02:49:01.944Z,6.61
2023-04-15T02:50:01.071Z,6.55
2023-04-15T02:51:01.341Z,6.57
2023-04-15T02:52:01.656Z,6.53
2023-04-15T02:53:01.911Z,6.51
2023-04-15T02:54:01.123Z,6.50
2023-04-15T02:55:01.452Z,6.45
2023-04-15T02:56:01.703Z,6.38
2023-04-15T02:57:00.938Z,6.35
2023-04-15T02:58:01.243Z,6.28
2023-04-15T02:59:01.847Z,6.28
2023-04-15T03:00:01.734Z,6.24
2023-04-15T03:01:00.990Z,6.24
2023-04-15T03:02:01.340Z,6.19
2023-04-15T03:03:01.636Z,6.13
2023-04-15T03:04:00.934Z,6.11
2023-04-15T03:05:00.959Z,6.10
2023-04-15T03:06:01.151Z,6.03
2023-04-15T03:07:02.373Z,6.01
2023-04-15T03:08:00.823Z,5.98
2023-04-15T03:09:02.308Z,5.93
2023-04-15T03:10:01.485Z,5.92
2023-04-15T03:11:01.627Z,5.92
2023-04-15T03:12:01.839Z,5.88
2023-04-15T03:13:02.051Z,5.84
2023-04-15T03:14:02.301Z,5.80
2023-04-15T03:15:01.649Z,5.77
2023-04-15T03:16:00.851Z,5.75
2023-04-15T03:17:01.096Z,5.77
2023-04-15T03:18:01.422Z,5.78
2023-04-15T03:19:00.830Z,5.77
2023-04-15T03:20:00.838Z,5.78
2023-04-15T03:21:01.084Z,5.80
2023-04-15T03:22:01.291Z,5.80
2023-04-15T03:23:01.507Z,5.80
2023-04-15T03:24:00.726Z,5.80
2023-04-15T03:25:00.966Z,5.81
2023-04-15T03:26:01.242Z,5.74
2023-04-15T03:27:01.483Z,5.78
2023-04-15T03:28:00.709Z,5.74
2023-04-15T03:29:01.228Z,5.70
2023-04-15T03:30:01.205Z,5.70
2023-04-15T03:31:00.561Z,5.70
2023-04-15T03:32:00.704Z,5.70
2023-04-15T03:33:00.934Z,5.75
2023-04-15T03:34:01.159Z,5.77
2023-04-15T03:35:00.395Z,5.77
2023-04-15T03:36:00.653Z,5.75
2023-04-15T03:37:00.935Z,5.78
2023-04-15T03:38:01.187Z,5.83
2023-04-15T03:39:00.599Z,5.78
2023-04-15T03:40:00.698Z,5.77
2023-04-15T03:41:00.979Z,5.74
2023-04-15T03:42:01.256Z,5.74
2023-04-15T03:43:00.474Z,5.77
2023-04-15T03:44:00.733Z,5.74
2023-04-15T03:45:01.014Z,5.70
2023-04-15T03:46:01.986Z,5.73
2023-04-15T03:47:00.540Z,5.66
2023-04-15T03:48:15.555Z,5.63
2023-04-15T03:49:02.298Z,5.62
2023-04-15T03:50:01.267Z,5.59
2023-04-15T03:51:01.538Z,5.58
2023-04-15T03:52:00.849Z,5.58
2023-04-15T03:53:01.216Z,5.59
2023-04-15T03:54:00.391Z,5.58
2023-04-15T03:55:00.685Z,5.56
2023-04-15T03:56:00.927Z,5.55
2023-04-15T03:57:01.151Z,5.58
2023-04-15T03:58:00.504Z,5.56
2023-04-15T03:59:00.956Z,5.56
2023-04-15T04:00:01.047Z,5.58
2023-04-15T04:01:01.296Z,5.62
2023-04-15T04:02:01.763Z,5.62
2023-04-15T04:03:01.154Z,5.62
2023-04-15T04:04:00.338Z,5.65
2023-04-15T04:05:00.569Z,5.67
2023-04-15T04:06:00.896Z,5.73
2023-04-15T04:07:00.145Z,5.69
2023-04-15T04:08:01.390Z,5.73
2023-04-15T04:09:01.296Z,5.74
2023-04-15T04:10:00.049Z,5.77
2023-04-15T04:11:00.307Z,5.77
2023-04-15T04:12:00.611Z,5.77
2023-04-15T04:13:00.805Z,5.75
2023-04-15T04:14:01.118Z,5.73
2023-04-15T04:15:00.505Z,5.70
2023-04-15T04:16:01.872Z,5.66
2023-04-15T04:17:01.015Z,5.65
2023-04-15T04:18:01.349Z,5.63
2023-04-15T04:19:01.743Z,5.59
2023-04-15T04:20:00.852Z,5.56
2023-04-15T04:21:00.540Z,5.52
2023-04-15T04:22:01.462Z,5.52
2023-04-15T04:23:00.729Z,5.47
2023-04-15T04:24:00.045Z,5.45
2023-04-15T04:25:00.355Z,5.44
2023-04-15T04:26:00.678Z,5.41
2023-04-15T04:26:59.946Z,5.40
2023-04-15T04:28:00.252Z,5.38
2023-04-15T04:29:00.779Z,5.38
2023-04-15T04:29:59.779Z,5.35
2023-04-15T04:31:00.130Z,5.35
2023-04-15T04:32:00.459Z,5.35
2023-04-15T04:33:00.733Z,5.35
2023-04-15T04:33:59.966Z,5.35
2023-04-15T04:35:00.281Z,5.30
2023-04-15T04:35:59.549Z,5.22
2023-04-15T04:37:00.844Z,5.14
2023-04-15T04:38:01.178Z,5.11
2023-04-15T04:39:00.765Z,5.06
2023-04-15T04:39:59.681Z,4.97
2023-04-15T04:40:59.970Z,4.96
2023-04-15T04:42:01.233Z,4.90
2023-04-15T04:42:59.508Z,4.91
2023-04-15T04:44:01.010Z,4.88
2023-04-15T04:45:00.180Z,4.87
2023-04-15T04:46:01.422Z,4.87
2023-04-15T04:46:59.645Z,4.87
2023-04-15T04:47:59.979Z,4.88
2023-04-15T04:49:00.331Z,4.88
2023-04-15T04:50:00.413Z,4.87
2023-04-15T04:51:00.638Z,4.87
2023-04-15T04:52:00.907Z,4.87
2023-04-15T04:53:00.246Z,4.88
2023-04-15T04:54:00.460Z,4.83
2023-04-15T04:54:59.784Z,4.80
2023-04-15T04:56:00.064Z,4.75
2023-04-15T04:56:59.305Z,4.71
2023-04-15T04:57:59.576Z,4.71
2023-04-15T04:59:01.014Z,4.75
2023-04-15T05:00:01.070Z,4.77
2023-04-15T05:01:00.359Z,4.83
2023-04-15T05:01:59.694Z,4.86
2023-04-15T05:03:00.124Z,4.87
2023-04-15T05:03:59.251Z,4.88
2023-04-15T05:04:59.455Z,4.94
2023-04-15T05:05:59.745Z,4.96
2023-04-15T05:07:00.228Z,4.94
2023-04-15T05:08:00.258Z,4.93
2023-04-15T05:08:59.820Z,4.94
2023-04-15T05:09:59.855Z,5.02
2023-04-15T05:10:59.101Z,5.05
2023-04-15T05:12:00.343Z,5.11
2023-04-15T05:13:00.646Z,5.15
2023-04-15T05:14:00.955Z,5.12
2023-04-15T05:14:59.292Z,5.14
2023-04-15T05:16:00.628Z,5.11
2023-04-15T05:16:59.870Z,5.14
2023-04-15T05:17:59.281Z,5.17
2023-04-15T05:18:59.638Z,5.24
2023-04-15T05:20:00.687Z,5.29
2023-04-15T05:20:59.939Z,5.30
2023-04-15T05:22:00.602Z,5.32
2023-04-15T05:22:59.608Z,5.30
2023-04-15T05:23:59.897Z,5.32
2023-04-15T05:24:59.174Z,5.33
2023-04-15T05:25:59.490Z,5.35
2023-04-15T05:26:59.845Z,5.35
2023-04-15T05:27:59.052Z,5.37
2023-04-15T05:29:00.609Z,5.38
2023-04-15T05:30:00.627Z,5.41
2023-04-15T05:30:59.026Z,5.42
2023-04-15T05:32:00.211Z,5.44
2023-04-15T05:32:59.638Z,5.45
2023-04-15T05:33:58.801Z,5.45
2023-04-15T05:34:59.124Z,5.48
2023-04-15T05:36:00.374Z,5.52
2023-04-15T05:37:00.671Z,5.55
2023-04-15T05:37:58.922Z,5.58
2023-04-15T05:39:00.573Z,5.60
2023-04-15T05:39:59.533Z,5.67
2023-04-15T05:40:58.756Z,5.67
2023-04-15T05:41:59.022Z,5.66
2023-04-15T05:42:59.319Z,5.74
2023-04-15T05:43:59.629Z,5.81
2023-04-15T05:44:58.826Z,5.84
2023-04-15T05:45:59.111Z,5.88
2023-04-15T05:46:59.405Z,5.90
2023-04-15T05:47:58.708Z,5.92
2023-04-15T05:48:58.960Z,5.95
2023-04-15T05:49:59.252Z,5.99
2023-04-15T05:50:59.486Z,6.03
2023-04-15T05:51:58.697Z,6.06
2023-04-15T05:52:59.000Z,6.11
2023-04-15T05:53:59.253Z,6.13
2023-04-15T05:54:58.557Z,6.14
2023-04-15T05:55:58.923Z,6.14
2023-04-15T05:56:59.113Z,6.17
2023-04-15T05:58:00.324Z,6.21
2023-04-15T05:58:58.683Z,6.25
2023-04-15T05:59:59.927Z,6.30
2023-04-15T06:00:59.201Z,6.38
2023-04-15T06:01:58.481Z,6.42
2023-04-15T06:02:58.796Z,6.48
2023-04-15T06:03:59.138Z,6.55
2023-04-15T06:05:00.429Z,6.58
2023-04-15T06:05:58.550Z,6.64
2023-04-15T06:06:58.835Z,6.68
2023-04-15T06:07:59.098Z,6.71
2023-04-15T06:08:58.356Z,6.72
2023-04-15T06:09:58.618Z,6.78
2023-04-15T06:10:58.929Z,6.76
2023-04-15T06:11:59.180Z,6.78
2023-04-15T06:12:58.414Z,6.82
2023-04-15T06:13:58.712Z,6.86
2023-04-15T06:15:00.120Z,6.86
2023-04-15T06:15:59.324Z,6.82
2023-04-15T06:16:58.511Z,6.78
2023-04-15T06:17:58.832Z,6.71
2023-04-15T06:18:59.104Z,6.65
2023-04-15T06:19:58.275Z,6.65
2023-04-15T06:20:58.517Z,6.68
2023-04-15T06:21:58.787Z,6.69
2023-04-15T06:22:59.086Z,6.69
2023-04-15T06:23:58.273Z,6.73
2023-04-15T06:24:58.554Z,6.81
2023-04-15T06:25:58.857Z,6.89
2023-04-15T06:26:59.101Z,6.99
2023-04-15T06:27:59.276Z,7.04
2023-04-15T06:28:59.822Z,7.09
2023-04-15T06:29:59.834Z,7.15
2023-04-15T06:30:59.030Z,7.23
2023-04-15T06:31:58.420Z,7.30
2023-04-15T06:32:59.561Z,7.34
2023-04-15T06:33:59.750Z,7.39
2023-04-15T06:34:58.965Z,7.39
2023-04-15T06:35:59.207Z,7.41
2023-04-15T06:36:58.550Z,7.42
2023-04-15T06:37:58.759Z,7.45
2023-04-15T06:38:59.063Z,7.47
2023-04-15T06:39:59.168Z,7.52
2023-04-15T06:40:58.433Z,7.54
2023-04-15T06:41:58.714Z,7.57
2023-04-15T06:42:57.920Z,7.62
2023-04-15T06:43:59.078Z,7.69
2023-04-15T06:44:58.402Z,7.76
2023-04-15T06:45:59.653Z,7.76
2023-04-15T06:46:58.845Z,7.81
2023-04-15T06:47:58.156Z,7.85
2023-04-15T06:48:58.430Z,7.89
2023-04-15T06:49:58.699Z,7.92
2023-04-15T06:50:57.871Z,7.96
2023-04-15T06:51:59.132Z,8.02
2023-04-15T06:52:58.443Z,8.06
2023-04-15T06:53:59.657Z,8.13
2023-04-15T06:54:57.913Z,8.20
2023-04-15T06:55:58.137Z,8.27
2023-04-15T06:56:58.398Z,8.29
2023-04-15T06:57:58.677Z,8.36
2023-04-15T06:58:57.911Z,8.40
2023-04-15T06:59:58.103Z,8.43
2023-04-15T07:00:58.383Z,8.49
2023-04-15T07:01:58.663Z,8.54
2023-04-15T07:02:58.771Z,8.57
2023-04-15T07:03:58.059Z,8.61
2023-04-15T07:04:59.190Z,8.67
2023-04-15T07:05:59.448Z,8.71
2023-04-15T07:06:57.679Z,8.75
2023-04-15T07:07:58.914Z,8.82
2023-04-15T07:08:58.168Z,8.86
2023-04-15T07:09:58.408Z,8.88
2023-04-15T07:10:58.583Z,8.93
2023-04-15T07:11:58.788Z,8.97
2023-04-15T07:12:59.017Z,9.01
2023-04-15T07:13:58.288Z,9.03
2023-04-15T07:14:57.484Z,9.10
2023-04-15T07:15:58.730Z,9.10
2023-04-15T07:16:58.989Z,9.13
2023-04-15T07:17:58.303Z,9.08
2023-04-15T07:18:58.415Z,9.03
2023-04-15T07:19:57.710Z,9.03
2023-04-15T07:20:58.874Z,9.04
2023-04-15T07:21:58.132Z,9.10
2023-04-15T07:22:58.293Z,9.13
2023-04-15T07:23:57.544Z,9.12
2023-04-15T07:24:57.839Z,9.13
2023-04-15T07:25:58.045Z,9.15
2023-04-15T07:27:00.836Z,9.17
2023-04-15T07:27:58.437Z,9.19
2023-04-15T07:28:57.745Z,9.19
2023-04-15T07:29:58.928Z,9.19
2023-04-15T07:30:58.544Z,9.23
2023-04-15T07:31:58.347Z,9.27
2023-04-15T07:32:58.614Z,9.30
2023-04-15T07:33:57.854Z,9.35
2023-04-15T07:34:59.057Z,9.38
2023-04-15T07:35:58.245Z,9.34
2023-04-15T07:36:57.601Z,9.32
2023-04-15T07:37:57.836Z,9.37
2023-04-15T07:38:58.052Z,9.42
2023-04-15T07:39:58.226Z,9.49
2023-04-15T07:40:58.448Z,9.53
2023-04-15T07:41:57.781Z,9.59
2023-04-15T07:42:57.998Z,9.67
2023-04-15T07:43:57.211Z,9.68
2023-04-15T07:44:57.522Z,9.70
2023-04-15T07:45:58.735Z,9.74
2023-04-15T07:46:58.936Z,9.75
2023-04-15T07:47:57.210Z,9.77
2023-04-15T07:48:58.358Z,9.75
2023-04-15T07:49:58.587Z,9.78
2023-04-15T07:50:58.844Z,9.80
2023-04-15T07:51:58.092Z,9.77
2023-04-15T07:52:57.417Z,9.73
2023-04-15T07:53:58.556Z,9.74
2023-04-15T07:54:57.817Z,9.80
2023-04-15T07:55:57.008Z,9.85
2023-04-15T07:56:58.237Z,9.85
2023-04-15T07:57:57.499Z,9.83
2023-04-15T07:58:57.755Z,9.88
2023-04-15T07:59:56.920Z,9.91
2023-04-15T08:00:57.156Z,9.88
2023-04-15T08:01:57.472Z,9.80
2023-04-15T08:02:58.761Z,9.80
2023-04-15T08:03:57.046Z,9.81
2023-04-15T08:04:57.061Z,9.80
2023-04-15T08:05:57.303Z,9.83
2023-04-15T08:06:57.515Z,9.83
2023-04-15T08:07:57.754Z,9.74
2023-04-15T08:08:56.949Z,9.85
2023-04-15T08:09:57.214Z,9.86
2023-04-15T08:10:58.338Z,9.89
2023-04-15T08:11:58.587Z,9.91
2023-04-15T08:12:57.746Z,9.89
2023-04-15T08:13:58.026Z,9.91
2023-04-15T08:14:57.721Z,9.96
2023-04-15T08:15:58.484Z,9.99
2023-04-15T08:16:57.647Z,10.01
2023-04-15T08:17:57.935Z,10.07
2023-04-15T08:18:58.183Z,10.17
2023-04-15T08:19:58.360Z,10.20
2023-04-15T08:20:57.607Z,10.25
2023-04-15T08:21:56.832Z,10.32
2023-04-15T08:22:58.045Z,10.42
2023-04-15T08:23:57.284Z,10.51
2023-04-15T08:24:57.524Z,10.58
2023-04-15T08:25:57.671Z,10.66
2023-04-15T08:26:56.971Z,10.73
2023-04-15T08:27:58.151Z,10.81
2023-04-15T08:28:57.501Z,10.86
2023-04-15T08:29:57.547Z,10.93
2023-04-15T08:30:57.727Z,11.01
2023-04-15T08:31:57.514Z,11.06
2023-04-15T08:32:57.278Z,11.12
2023-04-15T08:33:57.340Z,11.12
2023-04-15T08:34:57.545Z,11.19
2023-04-15T08:35:56.790Z,11.24
2023-04-15T08:36:57.969Z,11.26
2023-04-15T08:37:57.217Z,11.28
2023-04-15T08:38:57.331Z,11.33
2023-04-15T08:39:57.551Z,11.39
2023-04-15T08:40:57.788Z,11.38
2023-04-15T08:41:58.051Z,11.30
2023-04-15T08:42:57.251Z,11.23
2023-04-15T08:43:57.416Z,11.23
2023-04-15T08:44:57.603Z,11.24
2023-04-15T08:45:57.855Z,11.26
2023-04-15T08:46:58.053Z,11.27
2023-04-15T08:47:56.283Z,11.23
2023-04-15T08:48:56.516Z,11.24
2023-04-15T08:49:56.761Z,11.24
2023-04-15T08:50:56.908Z,11.27
2023-04-15T08:51:58.086Z,11.27
2023-04-15T08:52:57.273Z,11.31
2023-04-15T08:53:57.463Z,11.38
2023-04-15T08:54:57.727Z,11.44
2023-04-15T08:55:57.938Z,11.51
2023-04-15T08:56:56.144Z,11.60
2023-04-15T08:57:56.316Z,11.69
2023-04-15T08:58:56.558Z,11.79
2023-04-15T08:59:57.698Z,11.77
2023-04-15T09:00:57.052Z,11.75
2023-04-15T09:01:57.104Z,11.78
2023-04-15T09:02:56.371Z,11.79
2023-04-15T09:03:57.606Z,11.85
2023-04-15T09:04:57.632Z,11.82
2023-04-15T09:05:57.840Z,11.79
2023-04-15T09:06:56.985Z,11.69
2023-04-15T09:07:57.220Z,11.62
2023-04-15T09:08:57.352Z,11.54
2023-04-15T09:09:57.587Z,11.53
2023-04-15T09:10:57.732Z,11.53
2023-04-15T09:11:55.931Z,11.56
2023-04-15T09:12:57.271Z,11.69
2023-04-15T09:13:56.328Z,11.64
2023-04-15T09:14:57.548Z,11.69
2023-04-15T09:15:56.745Z,11.77
2023-04-15T09:16:57.016Z,11.82
2023-04-15T09:17:56.238Z,11.87
2023-04-15T09:18:56.406Z,11.90
2023-04-15T09:19:57.571Z,11.96
2023-04-15T09:20:56.737Z,12.00
2023-04-15T09:21:58.904Z,12.08
2023-04-15T09:22:56.188Z,12.16
2023-04-15T09:23:56.371Z,12.26
2023-04-15T09:24:57.550Z,12.31
2023-04-15T09:25:56.714Z,12.38
2023-04-15T09:26:56.900Z,12.44
2023-04-15T09:27:57.092Z,12.49
2023-04-15T09:28:56.405Z,12.54
2023-04-15T09:29:57.456Z,12.59
2023-04-15T09:30:55.696Z,12.67
2023-04-15T09:31:55.891Z,12.71
2023-04-15T09:32:56.115Z,12.71
2023-04-15T09:33:56.255Z,12.70
2023-04-15T09:34:56.391Z,12.62
2023-04-15T09:35:55.528Z,12.55
2023-04-15T09:36:56.706Z,12.44
2023-04-15T09:37:56.909Z,12.41
2023-04-15T09:38:57.075Z,12.33
2023-04-15T09:39:56.282Z,12.26
2023-04-15T09:40:56.517Z,12.21
2023-04-15T09:41:55.608Z,12.25
2023-04-15T09:42:55.788Z,12.31
2023-04-15T09:43:55.973Z,12.41
2023-04-15T09:44:57.131Z,12.46
2023-04-15T09:45:56.358Z,12.58
2023-04-15T09:46:56.428Z,12.67
2023-04-15T09:47:57.115Z,12.79
2023-04-15T09:48:56.807Z,12.89
2023-04-15T09:49:57.051Z,12.94
2023-04-15T09:50:57.228Z,12.99
2023-04-15T09:52:04.984Z,12.95
2023-04-15T09:52:56.557Z,12.91
2023-04-15T09:53:56.710Z,12.84
2023-04-15T09:54:56.867Z,12.81
2023-04-15T09:55:57.054Z,12.85
2023-04-15T09:56:56.312Z,12.85
2023-04-15T09:57:56.371Z,12.85
2023-04-15T09:58:55.715Z,12.85
2023-04-15T09:59:55.759Z,12.66
2023-04-15T10:00:57.216Z,12.62
2023-04-15T10:01:56.198Z,12.59
2023-04-15T10:02:56.495Z,12.66
2023-04-15T10:03:55.599Z,12.70
2023-04-15T10:04:55.653Z,12.73
2023-04-15T10:05:56.794Z,12.79
2023-04-15T10:06:56.977Z,12.89
2023-04-15T10:07:55.200Z,12.84
2023-04-15T10:08:56.297Z,12.80
2023-04-15T10:09:55.517Z,12.74
2023-04-15T10:10:56.724Z,12.71
2023-04-15T10:11:56.901Z,12.80
2023-04-15T10:12:57.091Z,12.87
2023-04-15T10:13:56.246Z,12.96
2023-04-15T10:14:56.398Z,13.07
2023-04-15T10:15:56.612Z,13.10
2023-04-15T10:16:56.783Z,13.13
2023-04-15T10:17:56.049Z,13.16
2023-04-15T10:18:57.250Z,13.17
2023-04-15T10:19:56.296Z,13.21
2023-04-15T10:20:55.576Z,13.31
2023-04-15T10:21:55.726Z,13.41
2023-04-15T10:22:56.020Z,13.43
2023-04-15T10:23:57.079Z,13.32
2023-04-15T10:24:56.229Z,13.35
2023-04-15T10:25:56.395Z,13.35
2023-04-15T10:26:55.613Z,13.32
2023-04-15T10:27:55.757Z,13.31
2023-04-15T10:28:54.907Z,13.27
2023-04-15T10:29:55.079Z,13.29
2023-04-15T10:30:55.362Z,13.35
2023-04-15T10:31:55.441Z,13.36
2023-04-15T10:32:56.627Z,13.36
2023-04-15T10:33:55.742Z,13.36
2023-04-15T10:34:55.940Z,13.44
2023-04-15T10:35:56.170Z,13.53
2023-04-15T10:36:56.290Z,13.59
2023-04-15T10:37:56.492Z,13.65
2023-04-15T10:38:56.665Z,13.71
2023-04-15T10:39:55.745Z,13.80
2023-04-15T10:40:55.968Z,13.81
2023-04-15T10:41:56.182Z,13.87
2023-04-15T10:42:56.340Z,13.94
2023-04-15T10:43:55.572Z,13.98
2023-04-15T10:44:54.682Z,13.96
2023-04-15T10:45:54.882Z,13.90
2023-04-15T10:46:56.095Z,13.87
2023-04-15T10:47:56.271Z,13.62
2023-04-15T10:48:56.355Z,13.38
2023-04-15T10:49:55.552Z,13.36
2023-04-15T10:50:55.676Z,13.36
2023-04-15T10:51:54.857Z,13.35
2023-04-15T10:52:56.061Z,13.39
2023-04-15T10:53:55.163Z,13.35
2023-04-15T10:54:56.319Z,13.16
2023-04-15T10:55:55.446Z,13.16
2023-04-15T10:56:55.663Z,13.24
2023-04-15T10:57:55.931Z,13.36
2023-04-15T10:58:55.165Z,13.43
2023-04-15T10:59:55.284Z,13.46
2023-04-15T11:00:54.467Z,13.53
2023-04-15T11:01:54.868Z,13.65
2023-04-15T11:02:55.856Z,13.61
2023-04-15T11:03:56.100Z,13.62
2023-04-15T11:04:56.484Z,13.68
2023-04-15T11:05:55.414Z,13.68
2023-04-15T11:06:54.493Z,13.65
2023-04-15T11:07:54.698Z,13.61
2023-04-15T11:08:54.880Z,13.53
2023-04-15T11:09:56.004Z,13.47
2023-04-15T11:10:56.220Z,13.50
2023-04-15T11:11:56.330Z,13.53
2023-04-15T11:12:54.545Z,13.54
2023-04-15T11:13:55.629Z,13.59
2023-04-15T11:14:55.817Z,13.59
2023-04-15T11:15:55.055Z,13.53
2023-04-15T11:16:56.199Z,13.55
2023-04-15T11:17:55.373Z,13.53
2023-04-15T11:18:55.472Z,13.54
2023-04-15T11:19:55.663Z,13.53
2023-04-15T11:20:55.796Z,13.48
2023-04-15T11:21:55.956Z,13.41
2023-04-15T11:23:13.924Z,13.31
2023-04-15T11:23:55.292Z,13.21
2023-04-15T11:24:54.529Z,13.13
2023-04-15T11:25:54.647Z,13.14
2023-04-15T11:26:55.810Z,13.16
2023-04-15T11:27:55.048Z,13.24
2023-04-15T11:28:55.153Z,13.22
2023-04-15T11:29:55.287Z,13.19
2023-04-15T11:30:55.492Z,13.17
2023-04-15T11:31:55.720Z,13.09
2023-04-15T11:32:55.814Z,13.04
2023-04-15T11:33:54.081Z,13.01
2023-04-15T11:34:54.158Z,12.98
2023-04-15T11:35:54.340Z,12.92
2023-04-15T11:36:54.521Z,12.91
2023-04-15T11:37:55.709Z,12.89
2023-04-15T11:38:54.853Z,12.85
2023-04-15T11:39:54.170Z,12.81
2023-04-15T11:40:54.298Z,12.87
2023-04-15T11:41:54.522Z,12.87
2023-04-15T11:42:54.709Z,12.89
2023-04-15T11:43:53.916Z,12.91
2023-04-15T11:44:54.070Z,12.95
2023-04-15T11:45:54.410Z,12.96
2023-04-15T11:46:55.436Z,12.98
2023-04-15T11:47:55.638Z,12.91
2023-04-15T11:48:53.797Z,12.85
2023-04-15T11:49:54.936Z,12.77
2023-04-15T11:50:55.169Z,12.71
2023-04-15T11:51:55.395Z,12.63
2023-04-15T11:52:55.538Z,12.56
2023-04-15T11:53:54.799Z,12.58
2023-04-15T11:54:53.906Z,12.59
2023-04-15T11:55:54.097Z,12.63
2023-04-15T11:56:54.296Z,12.67
2023-04-15T11:57:55.442Z,12.73
2023-04-15T11:58:55.603Z,12.77
2023-04-15T11:59:53.784Z,12.70
2023-04-15T12:00:54.941Z,12.71
2023-04-15T12:01:55.272Z,12.74
2023-04-15T12:02:54.484Z,12.74
2023-04-15T12:03:55.661Z,12.66
2023-04-15T12:04:53.854Z,12.59
2023-04-15T12:05:53.872Z,12.58
2023-04-15T12:06:54.069Z,12.56
2023-04-15T12:07:55.260Z,12.52
2023-04-15T12:08:55.444Z,12.44
2023-04-15T12:09:54.596Z,12.36
2023-04-15T12:10:54.782Z,12.37
2023-04-15T12:11:54.964Z,12.37
2023-04-15T12:12:55.156Z,12.36
2023-04-15T12:13:55.345Z,12.36
2023-04-15T12:14:54.524Z,12.36
2023-04-15T12:15:54.805Z,12.29
2023-04-15T12:16:54.946Z,12.25
2023-04-15T12:17:54.170Z,12.25
2023-04-15T12:18:54.324Z,12.23
2023-04-15T12:19:53.457Z,12.26
2023-04-15T12:20:54.699Z,12.21
2023-04-15T12:21:54.837Z,12.21
2023-04-15T12:22:54.038Z,12.21
2023-04-15T12:23:55.182Z,12.13
2023-04-15T12:24:53.390Z,12.04
2023-04-15T12:25:53.560Z,11.98
2023-04-15T12:26:53.792Z,11.96
2023-04-15T12:27:54.086Z,11.85
2023-04-15T12:28:55.092Z,11.82
2023-04-15T12:29:53.290Z,11.78
2023-04-15T12:30:54.493Z,11.77
2023-04-15T12:31:54.653Z,11.72
2023-04-15T12:32:54.875Z,11.64
2023-04-15T12:33:55.031Z,11.64
2023-04-15T12:34:53.186Z,11.66
2023-04-15T12:35:53.397Z,11.57
2023-04-15T12:36:54.552Z,11.56
2023-04-15T12:37:53.756Z,11.54
2023-04-15T12:38:53.957Z,11.57
2023-04-15T12:39:54.409Z,11.60
2023-04-15T12:40:53.272Z,11.57
2023-04-15T12:41:53.476Z,11.59
2023-04-15T12:42:53.655Z,11.49
2023-04-15T12:43:54.785Z,11.46
2023-04-15T12:44:54.080Z,11.41
2023-04-15T12:45:53.195Z,11.41
2023-04-15T12:46:53.623Z,11.33
2023-04-15T12:47:53.650Z,11.31
2023-04-15T12:48:54.736Z,11.33
2023-04-15T12:49:54.005Z,11.38
2023-04-15T12:50:53.168Z,11.35
2023-04-15T12:51:53.349Z,11.30
2023-04-15T12:52:53.578Z,11.26
2023-04-15T12:53:53.773Z,11.26
2023-04-15T12:54:52.922Z,11.26
2023-04-15T12:55:53.151Z,11.28
2023-04-15T12:56:53.434Z,11.28
2023-04-15T12:57:54.447Z,11.28
2023-04-15T12:58:53.795Z,11.30
2023-04-15T12:59:54.835Z,11.33
2023-04-15T13:00:53.051Z,11.33
2023-04-15T13:01:53.391Z,11.28
2023-04-15T13:02:53.547Z,11.20
2023-04-15T13:03:53.742Z,11.06
2023-04-15T13:04:52.850Z,11.02
2023-04-15T13:05:53.018Z,10.95
2023-04-15T13:06:53.280Z,10.91
2023-04-15T13:07:53.460Z,10.84